Terminal Aerodrome Forecast
Issued by NWS

Home | Current Version | Previous Version | Text Only | Print | Product List | Glossary On
Versions: 1 2 3 4 5 6 7 8 9 10 11 12 13 14
000
FTUS42 KTAE 221720
TAFDHN
TAF
KDHN 221720Z 2218/2318 21007KT P6SM SCT020 BKN040
     FM230100 20006KT P6SM RA VCTS BKN030CB
     FM231200 20015G20KT 2SM +TSRA BKN015CB=

USA.gov is the U.S. government's official web portal to all federal, state and local government web resources and services.